sensor_id;sensor_type;location;lat;lon;timestamp;P1;durP1;ratioP1;P2;durP2;ratioP2
81930;SDS011;71395;43.488;1.472;2023-07-13T00:14:20;2.95;;;1.63;;
81930;SDS011;71395;43.488;1.472;2023-07-13T00:16:46;2.95;;;1.42;;
81930;SDS011;71395;43.488;1.472;2023-07-13T00:21:48;2.92;;;1.50;;
81930;SDS011;71395;43.488;1.472;2023-07-13T00:24:16;2.97;;;1.50;;
81930;SDS011;71395;43.488;1.472;2023-07-13T00:26:48;3.20;;;1.50;;
81930;SDS011;71395;43.488;1.472;2023-07-13T00:29:14;2.45;;;1.40;;
81930;SDS011;71395;43.488;1.472;2023-07-13T00:31:41;2.35;;;1.20;;
81930;SDS011;71395;43.488;1.472;2023-07-13T00:34:07;2.45;;;1.48;;
81930;SDS011;71395;43.488;1.472;2023-07-13T01:07:35;2.53;;;1.38;;
81930;SDS011;71395;43.488;1.472;2023-07-13T01:10:01;3.50;;;1.48;;
81930;SDS011;71395;43.488;1.472;2023-07-13T03:24:44;2.30;;;1.13;;
81930;SDS011;71395;43.488;1.472;2023-07-13T03:27:12;3.75;;;1.40;;
81930;SDS011;71395;43.488;1.472;2023-07-13T03:29:38;3.08;;;1.20;;
81930;SDS011;71395;43.488;1.472;2023-07-13T03:32:04;3.60;;;1.40;;
81930;SDS011;71395;43.488;1.472;2023-07-13T03:42:15;3.00;;;1.17;;
81930;SDS011;71395;43.488;1.472;2023-07-13T03:44:41;2.92;;;1.20;;
81930;SDS011;71395;43.488;1.472;2023-07-13T03:54:56;4.05;;;1.45;;
81930;SDS011;71395;43.488;1.472;2023-07-13T03:57:22;3.78;;;1.13;;
81930;SDS011;71395;43.488;1.472;2023-07-13T03:59:49;4.28;;;1.35;;
81930;SDS011;71395;43.488;1.472;2023-07-13T04:07:25;3.08;;;1.17;;
81930;SDS011;71395;43.488;1.472;2023-07-13T04:09:51;3.33;;;1.00;;
81930;SDS011;71395;43.488;1.472;2023-07-13T04:56:15;4.03;;;1.25;;
81930;SDS011;71395;43.488;1.472;2023-07-13T05:16:51;4.32;;;1.30;;
81930;SDS011;71395;43.488;1.472;2023-07-13T05:19:16;4.63;;;1.00;;
81930;SDS011;71395;43.488;1.472;2023-07-13T05:21:42;3.45;;;0.90;;
81930;SDS011;71395;43.488;1.472;2023-07-13T05:24:07;3.10;;;1.00;;
81930;SDS011;71395;43.488;1.472;2023-07-13T05:29:08;2.90;;;0.93;;
81930;SDS011;71395;43.488;1.472;2023-07-13T06:16:39;2.58;;;1.00;;
81930;SDS011;71395;43.488;1.472;2023-07-13T06:19:06;4.30;;;1.00;;
81930;SDS011;71395;43.488;1.472;2023-07-13T06:21:32;5.30;;;1.15;;
81930;SDS011;71395;43.488;1.472;2023-07-13T06:23:58;4.13;;;1.02;;
81930;SDS011;71395;43.488;1.472;2023-07-13T06:29:09;3.95;;;1.02;;
81930;SDS011;71395;43.488;1.472;2023-07-13T06:31:34;4.45;;;1.10;;
81930;SDS011;71395;43.488;1.472;2023-07-13T06:34:00;6.55;;;1.10;;
81930;SDS011;71395;43.488;1.472;2023-07-13T06:41:37;3.40;;;1.02;;
81930;SDS011;71395;43.488;1.472;2023-07-13T06:44:04;4.28;;;1.00;;
81930;SDS011;71395;43.488;1.472;2023-07-13T06:46:30;4.70;;;1.13;;
81930;SDS011;71395;43.488;1.472;2023-07-13T06:48:55;2.95;;;0.93;;
81930;SDS011;71395;43.488;1.472;2023-07-13T06:51:21;6.30;;;1.15;;
81930;SDS011;71395;43.488;1.472;2023-07-13T06:53:47;5.93;;;0.82;;
81930;SDS011;71395;43.488;1.472;2023-07-13T06:56:12;4.10;;;1.00;;
81930;SDS011;71395;43.488;1.472;2023-07-13T06:58:38;5.85;;;0.90;;
81930;SDS011;71395;43.488;1.472;2023-07-13T07:01:04;3.72;;;0.95;;
81930;SDS011;71395;43.488;1.472;2023-07-13T07:03:30;5.90;;;1.05;;
81930;SDS011;71395;43.488;1.472;2023-07-13T07:06:03;8.10;;;1.20;;
81930;SDS011;71395;43.488;1.472;2023-07-13T07:08:43;3.63;;;1.25;;
81930;SDS011;71395;43.488;1.472;2023-07-13T07:11:14;4.72;;;1.10;;
81930;SDS011;71395;43.488;1.472;2023-07-13T07:13:42;9.00;;;1.10;;
81930;SDS011;71395;43.488;1.472;2023-07-13T07:16:08;4.55;;;1.00;;
81930;SDS011;71395;43.488;1.472;2023-07-13T07:18:34;6.50;;;1.15;;
81930;SDS011;71395;43.488;1.472;2023-07-13T07:21:00;8.07;;;1.20;;
81930;SDS011;71395;43.488;1.472;2023-07-13T07:23:25;2.63;;;0.73;;
81930;SDS011;71395;43.488;1.472;2023-07-13T07:25:51;8.75;;;1.20;;
81930;SDS011;71395;43.488;1.472;2023-07-13T07:28:17;5.78;;;0.88;;
81930;SDS011;71395;43.488;1.472;2023-07-13T07:30:43;3.20;;;0.88;;
81930;SDS011;71395;43.488;1.472;2023-07-13T07:33:13;4.55;;;1.00;;
81930;SDS011;71395;43.488;1.472;2023-07-13T07:35:39;7.07;;;1.00;;
81930;SDS011;71395;43.488;1.472;2023-07-13T07:38:04;5.72;;;1.42;;
81930;SDS011;71395;43.488;1.472;2023-07-13T07:40:30;7.00;;;1.90;;
81930;SDS011;71395;43.488;1.472;2023-07-13T07:42:56;5.70;;;2.42;;
81930;SDS011;71395;43.488;1.472;2023-07-13T07:45:22;5.78;;;1.52;;
81930;SDS011;71395;43.488;1.472;2023-07-13T07:47:47;6.47;;;1.30;;
81930;SDS011;71395;43.488;1.472;2023-07-13T07:50:13;5.72;;;1.38;;
81930;SDS011;71395;43.488;1.472;2023-07-13T07:52:38;4.55;;;1.20;;
81930;SDS011;71395;43.488;1.472;2023-07-13T07:55:05;4.78;;;1.17;;
81930;SDS011;71395;43.488;1.472;2023-07-13T07:57:32;4.00;;;1.23;;
81930;SDS011;71395;43.488;1.472;2023-07-13T07:59:58;6.38;;;1.10;;
81930;SDS011;71395;43.488;1.472;2023-07-13T08:02:24;6.13;;;1.10;;
81930;SDS011;71395;43.488;1.472;2023-07-13T08:04:50;4.07;;;0.90;;
81930;SDS011;71395;43.488;1.472;2023-07-13T08:07:16;4.70;;;0.90;;
81930;SDS011;71395;43.488;1.472;2023-07-13T08:09:42;4.22;;;0.88;;
81930;SDS011;71395;43.488;1.472;2023-07-13T08:12:07;4.07;;;0.73;;
81930;SDS011;71395;43.488;1.472;2023-07-13T08:14:33;5.80;;;1.05;;
81930;SDS011;71395;43.488;1.472;2023-07-13T08:16:59;3.10;;;0.80;;
81930;SDS011;71395;43.488;1.472;2023-07-13T08:19:24;4.40;;;1.00;;
81930;SDS011;71395;43.488;1.472;2023-07-13T08:21:50;2.70;;;0.95;;
81930;SDS011;71395;43.488;1.472;2023-07-13T08:24:15;5.35;;;0.70;;
81930;SDS011;71395;43.488;1.472;2023-07-13T08:26:43;4.22;;;0.73;;
81930;SDS011;71395;43.488;1.472;2023-07-13T08:29:10;4.15;;;0.90;;
81930;SDS011;71395;43.488;1.472;2023-07-13T08:31:36;2.47;;;0.65;;
81930;SDS011;71395;43.488;1.472;2023-07-13T08:34:01;5.03;;;0.80;;
81930;SDS011;71395;43.488;1.472;2023-07-13T08:36:28;4.03;;;1.00;;
81930;SDS011;71395;43.488;1.472;2023-07-13T08:38:54;4.03;;;0.80;;
81930;SDS011;71395;43.488;1.472;2023-07-13T08:41:20;4.53;;;0.85;;
81930;SDS011;71395;43.488;1.472;2023-07-13T08:43:49;3.97;;;0.70;;
81930;SDS011;71395;43.488;1.472;2023-07-13T08:46:26;3.55;;;0.60;;
81930;SDS011;71395;43.488;1.472;2023-07-13T08:48:59;4.53;;;0.60;;
81930;SDS011;71395;43.488;1.472;2023-07-13T08:54:31;3.83;;;1.05;;
81930;SDS011;71395;43.488;1.472;2023-07-13T08:57:01;6.18;;;0.90;;
81930;SDS011;71395;43.488;1.472;2023-07-13T08:59:35;2.65;;;0.80;;
81930;SDS011;71395;43.488;1.472;2023-07-13T09:10:20;6.85;;;1.00;;
81930;SDS011;71395;43.488;1.472;2023-07-13T09:15:38;6.22;;;1.00;;
81930;SDS011;71395;43.488;1.472;2023-07-13T09:18:14;4.75;;;0.90;;
81930;SDS011;71395;43.488;1.472;2023-07-13T09:20:45;4.43;;;0.95;;
81930;SDS011;71395;43.488;1.472;2023-07-13T09:23:16;7.32;;;1.00;;
81930;SDS011;71395;43.488;1.472;2023-07-13T09:25:45;3.03;;;0.75;;
81930;SDS011;71395;43.488;1.472;2023-07-13T09:28:19;4.75;;;1.00;;
81930;SDS011;71395;43.488;1.472;2023-07-13T09:31:01;4.25;;;1.00;;
81930;SDS011;71395;43.488;1.472;2023-07-13T09:33:30;5.05;;;0.70;;
81930;SDS011;71395;43.488;1.472;2023-07-13T09:35:59;3.28;;;0.90;;
81930;SDS011;71395;43.488;1.472;2023-07-13T09:38:28;5.68;;;0.80;;
81930;SDS011;71395;43.488;1.472;2023-07-13T09:46:37;3.75;;;0.95;;
81930;SDS011;71395;43.488;1.472;2023-07-13T09:49:11;4.43;;;0.88;;
81930;SDS011;71395;43.488;1.472;2023-07-13T09:51:38;6.32;;;0.98;;
81930;SDS011;71395;43.488;1.472;2023-07-13T09:54:09;2.25;;;0.90;;
81930;SDS011;71395;43.488;1.472;2023-07-13T09:56:43;5.88;;;0.70;;
81930;SDS011;71395;43.488;1.472;2023-07-13T09:59:19;2.00;;;0.80;;
81930;SDS011;71395;43.488;1.472;2023-07-13T10:01:46;5.82;;;0.80;;
81930;SDS011;71395;43.488;1.472;2023-07-13T10:04:13;3.85;;;1.00;;
81930;SDS011;71395;43.488;1.472;2023-07-13T10:06:43;3.30;;;1.00;;
81930;SDS011;71395;43.488;1.472;2023-07-13T10:09:10;4.63;;;0.80;;
81930;SDS011;71395;43.488;1.472;2023-07-13T10:11:42;3.58;;;1.00;;
81930;SDS011;71395;43.488;1.472;2023-07-13T10:16:36;3.65;;;0.70;;
81930;SDS011;71395;43.488;1.472;2023-07-13T10:19:02;5.30;;;0.93;;
81930;SDS011;71395;43.488;1.472;2023-07-13T10:21:37;2.60;;;0.68;;
81930;SDS011;71395;43.488;1.472;2023-07-13T10:27:33;5.38;;;0.82;;
81930;SDS011;71395;43.488;1.472;2023-07-13T10:29:48;10.77;;;0.90;;
81930;SDS011;71395;43.488;1.472;2023-07-13T10:32:21;4.05;;;0.90;;
81930;SDS011;71395;43.488;1.472;2023-07-13T10:34:49;4.38;;;0.70;;
81930;SDS011;71395;43.488;1.472;2023-07-13T10:37:22;3.35;;;0.70;;
81930;SDS011;71395;43.488;1.472;2023-07-13T10:39:51;4.72;;;1.00;;
81930;SDS011;71395;43.488;1.472;2023-07-13T10:42:27;3.53;;;0.80;;
81930;SDS011;71395;43.488;1.472;2023-07-13T10:44:55;3.20;;;0.90;;
81930;SDS011;71395;43.488;1.472;2023-07-13T10:47:21;4.18;;;0.88;;
81930;SDS011;71395;43.488;1.472;2023-07-13T10:49:53;2.85;;;0.80;;
81930;SDS011;71395;43.488;1.472;2023-07-13T10:55:05;3.42;;;0.80;;
81930;SDS011;71395;43.488;1.472;2023-07-13T10:57:32;3.28;;;0.90;;
81930;SDS011;71395;43.488;1.472;2023-07-13T11:00:15;4.70;;;0.90;;
81930;SDS011;71395;43.488;1.472;2023-07-13T11:02:43;2.25;;;0.88;;
81930;SDS011;71395;43.488;1.472;2023-07-13T11:05:30;1.98;;;0.70;;
81930;SDS011;71395;43.488;1.472;2023-07-13T11:10:53;3.92;;;0.90;;
81930;SDS011;71395;43.488;1.472;2023-07-13T11:13:36;6.43;;;1.13;;
81930;SDS011;71395;43.488;1.472;2023-07-13T11:16:35;6.93;;;1.10;;
81930;SDS011;71395;43.488;1.472;2023-07-13T11:21:32;4.97;;;1.05;;
81930;SDS011;71395;43.488;1.472;2023-07-13T11:24:05;6.25;;;1.05;;
81930;SDS011;71395;43.488;1.472;2023-07-13T11:31:42;3.90;;;0.75;;
81930;SDS011;71395;43.488;1.472;2023-07-13T11:34:16;4.50;;;0.90;;
81930;SDS011;71395;43.488;1.472;2023-07-13T11:36:46;4.65;;;1.00;;
81930;SDS011;71395;43.488;1.472;2023-07-13T11:39:19;3.35;;;1.20;;
81930;SDS011;71395;43.488;1.472;2023-07-13T11:41:58;2.53;;;0.90;;
81930;SDS011;71395;43.488;1.472;2023-07-13T11:44:26;3.05;;;0.80;;
81930;SDS011;71395;43.488;1.472;2023-07-13T11:46:54;4.28;;;0.95;;
81930;SDS011;71395;43.488;1.472;2023-07-13T11:49:25;2.35;;;0.88;;
81930;SDS011;71395;43.488;1.472;2023-07-13T11:51:54;2.28;;;0.70;;
81930;SDS011;71395;43.488;1.472;2023-07-13T11:54:28;3.42;;;0.93;;
81930;SDS011;71395;43.488;1.472;2023-07-13T11:57:02;4.85;;;1.10;;
81930;SDS011;71395;43.488;1.472;2023-07-13T11:59:40;4.15;;;1.20;;
81930;SDS011;71395;43.488;1.472;2023-07-13T12:02:16;4.35;;;1.00;;
81930;SDS011;71395;43.488;1.472;2023-07-13T12:04:59;6.43;;;1.10;;
81930;SDS011;71395;43.488;1.472;2023-07-13T12:07:28;3.08;;;0.90;;
81930;SDS011;71395;43.488;1.472;2023-07-13T12:10:29;3.42;;;1.00;;
81930;SDS011;71395;43.488;1.472;2023-07-13T12:12:52;3.50;;;0.90;;
81930;SDS011;71395;43.488;1.472;2023-07-13T12:15:20;2.88;;;1.15;;
81930;SDS011;71395;43.488;1.472;2023-07-13T12:17:47;5.80;;;1.25;;
81930;SDS011;71395;43.488;1.472;2023-07-13T12:20:21;4.35;;;1.00;;
81930;SDS011;71395;43.488;1.472;2023-07-13T12:22:49;2.85;;;0.95;;
81930;SDS011;71395;43.488;1.472;2023-07-13T12:25:15;3.78;;;0.98;;
81930;SDS011;71395;43.488;1.472;2023-07-13T12:27:42;4.32;;;1.00;;
81930;SDS011;71395;43.488;1.472;2023-07-13T12:33:06;3.90;;;0.85;;
81930;SDS011;71395;43.488;1.472;2023-07-13T12:35:56;3.80;;;1.05;;
81930;SDS011;71395;43.488;1.472;2023-07-13T12:38:24;3.33;;;1.10;;
81930;SDS011;71395;43.488;1.472;2023-07-13T12:40:51;4.88;;;1.00;;
81930;SDS011;71395;43.488;1.472;2023-07-13T12:43:17;4.07;;;1.00;;
81930;SDS011;71395;43.488;1.472;2023-07-13T12:45:56;3.05;;;0.93;;
81930;SDS011;71395;43.488;1.472;2023-07-13T12:48:23;2.78;;;0.85;;
81930;SDS011;71395;43.488;1.472;2023-07-13T12:50:49;5.82;;;1.10;;
81930;SDS011;71395;43.488;1.472;2023-07-13T12:53:16;4.35;;;1.10;;
81930;SDS011;71395;43.488;1.472;2023-07-13T12:55:55;6.20;;;1.17;;
81930;SDS011;71395;43.488;1.472;2023-07-13T12:58:30;4.25;;;1.10;;
81930;SDS011;71395;43.488;1.472;2023-07-13T13:01:08;2.88;;;1.10;;
81930;SDS011;71395;43.488;1.472;2023-07-13T13:03:38;4.88;;;1.20;;
81930;SDS011;71395;43.488;1.472;2023-07-13T13:08:47;3.35;;;1.00;;
81930;SDS011;71395;43.488;1.472;2023-07-13T13:11:15;6.30;;;1.27;;
81930;SDS011;71395;43.488;1.472;2023-07-13T13:13:44;3.47;;;0.90;;
81930;SDS011;71395;43.488;1.472;2023-07-13T13:18:46;3.88;;;1.08;;
81930;SDS011;71395;43.488;1.472;2023-07-13T13:21:12;4.18;;;0.90;;
81930;SDS011;71395;43.488;1.472;2023-07-13T13:23:37;4.15;;;1.13;;
81930;SDS011;71395;43.488;1.472;2023-07-13T13:26:04;3.72;;;0.90;;
81930;SDS011;71395;43.488;1.472;2023-07-13T13:28:34;3.33;;;1.08;;
81930;SDS011;71395;43.488;1.472;2023-07-13T13:30:59;3.92;;;1.00;;
81930;SDS011;71395;43.488;1.472;2023-07-13T13:33:25;2.35;;;0.82;;
81930;SDS011;71395;43.488;1.472;2023-07-13T13:35:50;3.33;;;1.00;;
81930;SDS011;71395;43.488;1.472;2023-07-13T13:38:19;3.15;;;1.10;;
81930;SDS011;71395;43.488;1.472;2023-07-13T13:40:47;3.28;;;0.90;;
81930;SDS011;71395;43.488;1.472;2023-07-13T13:45:43;2.83;;;1.00;;
81930;SDS011;71395;43.488;1.472;2023-07-13T13:48:14;4.18;;;0.90;;
81930;SDS011;71395;43.488;1.472;2023-07-13T13:50:41;5.85;;;0.80;;
81930;SDS011;71395;43.488;1.472;2023-07-13T13:53:11;2.70;;;0.85;;
81930;SDS011;71395;43.488;1.472;2023-07-13T13:55:38;3.70;;;1.00;;
81930;SDS011;71395;43.488;1.472;2023-07-13T13:58:07;2.80;;;1.02;;
81930;SDS011;71395;43.488;1.472;2023-07-13T14:00:34;3.30;;;1.30;;
81930;SDS011;71395;43.488;1.472;2023-07-13T14:03:00;3.83;;;1.00;;
81930;SDS011;71395;43.488;1.472;2023-07-13T14:05:25;3.35;;;0.80;;
81930;SDS011;71395;43.488;1.472;2023-07-13T14:07:52;7.03;;;0.88;;
81930;SDS011;71395;43.488;1.472;2023-07-13T14:10:20;3.30;;;0.80;;
81930;SDS011;71395;43.488;1.472;2023-07-13T14:12:48;5.70;;;1.02;;
81930;SDS011;71395;43.488;1.472;2023-07-13T14:15:18;4.30;;;0.95;;
81930;SDS011;71395;43.488;1.472;2023-07-13T14:17:56;2.85;;;0.90;;
81930;SDS011;71395;43.488;1.472;2023-07-13T14:20:23;2.97;;;0.82;;
81930;SDS011;71395;43.488;1.472;2023-07-13T14:22:51;3.58;;;0.80;;
81930;SDS011;71395;43.488;1.472;2023-07-13T14:25:18;4.63;;;0.90;;
81930;SDS011;71395;43.488;1.472;2023-07-13T14:27:45;3.33;;;0.80;;
81930;SDS011;71395;43.488;1.472;2023-07-13T14:30:15;3.25;;;1.10;;
81930;SDS011;71395;43.488;1.472;2023-07-13T14:32:42;2.70;;;0.82;;
81930;SDS011;71395;43.488;1.472;2023-07-13T14:35:11;6.22;;;0.80;;
81930;SDS011;71395;43.488;1.472;2023-07-13T14:37:39;2.10;;;0.63;;
81930;SDS011;71395;43.488;1.472;2023-07-13T14:40:16;2.95;;;0.77;;
81930;SDS011;71395;43.488;1.472;2023-07-13T14:42:43;2.22;;;0.90;;
81930;SDS011;71395;43.488;1.472;2023-07-13T14:45:12;2.60;;;1.00;;
81930;SDS011;71395;43.488;1.472;2023-07-13T14:47:42;3.28;;;0.80;;
81930;SDS011;71395;43.488;1.472;2023-07-13T14:52:41;3.53;;;0.73;;
81930;SDS011;71395;43.488;1.472;2023-07-13T14:55:15;2.92;;;0.80;;
81930;SDS011;71395;43.488;1.472;2023-07-13T14:57:42;3.00;;;0.93;;
81930;SDS011;71395;43.488;1.472;2023-07-13T15:00:14;4.32;;;1.00;;
81930;SDS011;71395;43.488;1.472;2023-07-13T15:02:42;5.15;;;0.73;;
81930;SDS011;71395;43.488;1.472;2023-07-13T15:05:22;2.72;;;0.70;;
81930;SDS011;71395;43.488;1.472;2023-07-13T15:07:49;3.75;;;0.80;;
81930;SDS011;71395;43.488;1.472;2023-07-13T15:10:17;2.05;;;0.80;;
81930;SDS011;71395;43.488;1.472;2023-07-13T15:12:47;3.53;;;0.60;;
81930;SDS011;71395;43.488;1.472;2023-07-13T15:15:13;2.28;;;0.80;;
81930;SDS011;71395;43.488;1.472;2023-07-13T15:17:40;4.20;;;0.95;;
81930;SDS011;71395;43.488;1.472;2023-07-13T15:22:50;3.15;;;0.80;;
81930;SDS011;71395;43.488;1.472;2023-07-13T15:25:17;6.82;;;1.30;;
81930;SDS011;71395;43.488;1.472;2023-07-13T15:27:45;2.92;;;0.80;;
81930;SDS011;71395;43.488;1.472;2023-07-13T15:30:11;2.38;;;0.70;;
81930;SDS011;71395;43.488;1.472;2023-07-13T15:32:37;1.95;;;0.70;;
81930;SDS011;71395;43.488;1.472;2023-07-13T15:35:02;2.85;;;0.75;;
81930;SDS011;71395;43.488;1.472;2023-07-13T15:37:28;2.22;;;0.80;;
81930;SDS011;71395;43.488;1.472;2023-07-13T15:39:54;1.52;;;0.50;;
81930;SDS011;71395;43.488;1.472;2023-07-13T15:42:20;3.38;;;0.80;;
81930;SDS011;71395;43.488;1.472;2023-07-13T15:44:47;4.25;;;0.70;;
81930;SDS011;71395;43.488;1.472;2023-07-13T15:47:13;2.05;;;0.70;;
81930;SDS011;71395;43.488;1.472;2023-07-13T15:49:40;1.90;;;0.63;;
81930;SDS011;71395;43.488;1.472;2023-07-13T15:52:18;3.60;;;0.68;;
81930;SDS011;71395;43.488;1.472;2023-07-13T15:54:48;3.08;;;0.70;;
81930;SDS011;71395;43.488;1.472;2023-07-13T15:57:14;4.65;;;0.70;;
81930;SDS011;71395;43.488;1.472;2023-07-13T15:59:40;4.18;;;0.80;;
81930;SDS011;71395;43.488;1.472;2023-07-13T16:02:18;4.28;;;0.80;;
81930;SDS011;71395;43.488;1.472;2023-07-13T16:04:45;3.08;;;0.88;;
81930;SDS011;71395;43.488;1.472;2023-07-13T16:07:14;3.00;;;0.80;;
81930;SDS011;71395;43.488;1.472;2023-07-13T16:09:46;6.60;;;0.90;;
81930;SDS011;71395;43.488;1.472;2023-07-13T16:12:14;3.35;;;0.70;;
81930;SDS011;71395;43.488;1.472;2023-07-13T16:14:41;3.90;;;1.05;;
81930;SDS011;71395;43.488;1.472;2023-07-13T16:17:10;4.13;;;0.68;;
81930;SDS011;71395;43.488;1.472;2023-07-13T16:19:37;3.22;;;0.80;;
81930;SDS011;71395;43.488;1.472;2023-07-13T16:22:03;4.65;;;1.20;;
81930;SDS011;71395;43.488;1.472;2023-07-13T16:24:30;2.88;;;0.70;;
81930;SDS011;71395;43.488;1.472;2023-07-13T16:26:58;3.90;;;0.93;;
81930;SDS011;71395;43.488;1.472;2023-07-13T16:29:28;1.73;;;0.70;;
81930;SDS011;71395;43.488;1.472;2023-07-13T16:34:29;2.75;;;1.00;;
81930;SDS011;71395;43.488;1.472;2023-07-13T16:36:59;3.83;;;0.98;;
81930;SDS011;71395;43.488;1.472;2023-07-13T16:39:25;1.77;;;0.70;;
81930;SDS011;71395;43.488;1.472;2023-07-13T16:41:58;3.25;;;0.85;;
81930;SDS011;71395;43.488;1.472;2023-07-13T16:44:25;4.53;;;1.00;;
81930;SDS011;71395;43.488;1.472;2023-07-13T16:46:53;3.25;;;0.77;;
81930;SDS011;71395;43.488;1.472;2023-07-13T16:49:32;3.22;;;0.90;;
81930;SDS011;71395;43.488;1.472;2023-07-13T16:52:02;2.65;;;0.80;;
81930;SDS011;71395;43.488;1.472;2023-07-13T16:54:32;4.07;;;0.95;;
81930;SDS011;71395;43.488;1.472;2023-07-13T16:57:01;2.10;;;0.68;;
81930;SDS011;71395;43.488;1.472;2023-07-13T16:59:33;1.88;;;0.73;;
81930;SDS011;71395;43.488;1.472;2023-07-13T17:02:00;3.35;;;1.00;;
81930;SDS011;71395;43.488;1.472;2023-07-13T17:04:29;1.67;;;0.70;;
81930;SDS011;71395;43.488;1.472;2023-07-13T17:06:56;1.80;;;0.90;;
81930;SDS011;71395;43.488;1.472;2023-07-13T17:09:24;2.10;;;0.70;;
81930;SDS011;71395;43.488;1.472;2023-07-13T17:11:50;2.20;;;0.80;;
81930;SDS011;71395;43.488;1.472;2023-07-13T17:14:19;3.75;;;0.80;;
81930;SDS011;71395;43.488;1.472;2023-07-13T17:16:52;2.35;;;0.63;;
81930;SDS011;71395;43.488;1.472;2023-07-13T17:19:21;3.78;;;0.80;;
81930;SDS011;71395;43.488;1.472;2023-07-13T17:21:53;2.83;;;0.88;;
81930;SDS011;71395;43.488;1.472;2023-07-13T17:24:19;2.80;;;0.70;;
81930;SDS011;71395;43.488;1.472;2023-07-13T17:26:52;2.88;;;0.73;;
81930;SDS011;71395;43.488;1.472;2023-07-13T17:29:20;4.47;;;0.90;;
81930;SDS011;71395;43.488;1.472;2023-07-13T17:31:46;2.15;;;0.82;;
81930;SDS011;71395;43.488;1.472;2023-07-13T17:34:13;2.10;;;0.88;;
81930;SDS011;71395;43.488;1.472;2023-07-13T17:36:43;3.95;;;0.80;;
81930;SDS011;71395;43.488;1.472;2023-07-13T17:39:16;2.08;;;0.73;;
81930;SDS011;71395;43.488;1.472;2023-07-13T17:41:46;3.10;;;0.80;;
81930;SDS011;71395;43.488;1.472;2023-07-13T17:44:12;3.20;;;0.80;;
81930;SDS011;71395;43.488;1.472;2023-07-13T17:46:41;4.05;;;0.90;;
81930;SDS011;71395;43.488;1.472;2023-07-13T17:49:18;2.22;;;0.85;;
81930;SDS011;71395;43.488;1.472;2023-07-13T17:51:46;3.78;;;0.80;;
81930;SDS011;71395;43.488;1.472;2023-07-13T17:54:16;3.10;;;1.00;;
81930;SDS011;71395;43.488;1.472;2023-07-13T17:56:44;7.47;;;1.00;;
81930;SDS011;71395;43.488;1.472;2023-07-13T17:59:11;3.22;;;0.93;;
81930;SDS011;71395;43.488;1.472;2023-07-13T18:01:37;3.22;;;0.88;;
81930;SDS011;71395;43.488;1.472;2023-07-13T18:04:09;3.53;;;0.80;;
81930;SDS011;71395;43.488;1.472;2023-07-13T18:06:39;3.10;;;0.90;;
81930;SDS011;71395;43.488;1.472;2023-07-13T18:09:16;4.32;;;0.80;;
81930;SDS011;71395;43.488;1.472;2023-07-13T18:11:44;2.30;;;0.90;;
81930;SDS011;71395;43.488;1.472;2023-07-13T18:14:10;3.28;;;0.73;;
81930;SDS011;71395;43.488;1.472;2023-07-13T18:16:37;2.47;;;0.90;;
81930;SDS011;71395;43.488;1.472;2023-07-13T18:19:06;2.05;;;0.80;;
81930;SDS011;71395;43.488;1.472;2023-07-13T18:21:48;3.28;;;0.77;;
81930;SDS011;71395;43.488;1.472;2023-07-13T18:24:16;3.03;;;0.70;;
81930;SDS011;71395;43.488;1.472;2023-07-13T18:26:42;4.07;;;0.70;;
81930;SDS011;71395;43.488;1.472;2023-07-13T18:29:07;2.83;;;0.80;;
81930;SDS011;71395;43.488;1.472;2023-07-13T18:31:34;3.78;;;1.10;;
81930;SDS011;71395;43.488;1.472;2023-07-13T18:34:00;2.33;;;0.90;;
81930;SDS011;71395;43.488;1.472;2023-07-13T18:36:29;2.67;;;0.90;;
81930;SDS011;71395;43.488;1.472;2023-07-13T18:38:55;3.67;;;1.00;;
81930;SDS011;71395;43.488;1.472;2023-07-13T18:41:23;4.15;;;0.85;;
81930;SDS011;71395;43.488;1.472;2023-07-13T18:43:49;3.13;;;1.10;;
81930;SDS011;71395;43.488;1.472;2023-07-13T18:46:21;4.65;;;1.10;;
81930;SDS011;71395;43.488;1.472;2023-07-13T18:48:49;2.97;;;0.90;;
81930;SDS011;71395;43.488;1.472;2023-07-13T18:51:16;3.80;;;0.95;;
81930;SDS011;71395;43.488;1.472;2023-07-13T18:53:42;3.90;;;1.10;;
81930;SDS011;71395;43.488;1.472;2023-07-13T18:56:08;2.67;;;0.90;;
81930;SDS011;71395;43.488;1.472;2023-07-13T18:58:39;4.30;;;1.10;;
81930;SDS011;71395;43.488;1.472;2023-07-13T19:01:17;3.47;;;0.90;;
81930;SDS011;71395;43.488;1.472;2023-07-13T19:04:27;3.88;;;1.00;;
81930;SDS011;71395;43.488;1.472;2023-07-13T19:06:55;2.60;;;0.90;;
81930;SDS011;71395;43.488;1.472;2023-07-13T19:09:23;2.75;;;0.95;;
81930;SDS011;71395;43.488;1.472;2023-07-13T19:11:50;2.47;;;0.80;;
81930;SDS011;71395;43.488;1.472;2023-07-13T19:14:17;4.07;;;1.00;;
81930;SDS011;71395;43.488;1.472;2023-07-13T19:16:45;3.20;;;0.98;;
81930;SDS011;71395;43.488;1.472;2023-07-13T19:19:12;2.40;;;0.88;;
81930;SDS011;71395;43.488;1.472;2023-07-13T19:21:40;3.03;;;0.85;;
81930;SDS011;71395;43.488;1.472;2023-07-13T19:24:24;3.40;;;1.00;;
81930;SDS011;71395;43.488;1.472;2023-07-13T19:26:51;3.92;;;0.88;;
81930;SDS011;71395;43.488;1.472;2023-07-13T19:29:18;2.28;;;0.77;;
81930;SDS011;71395;43.488;1.472;2023-07-13T19:31:48;2.33;;;0.75;;
81930;SDS011;71395;43.488;1.472;2023-07-13T19:36:42;2.83;;;0.90;;
81930;SDS011;71395;43.488;1.472;2023-07-13T19:39:15;2.80;;;0.80;;
81930;SDS011;71395;43.488;1.472;2023-07-13T19:42:13;2.58;;;0.70;;
81930;SDS011;71395;43.488;1.472;2023-07-13T19:44:42;2.50;;;0.80;;
81930;SDS011;71395;43.488;1.472;2023-07-13T19:47:11;2.50;;;0.85;;
81930;SDS011;71395;43.488;1.472;2023-07-13T19:49:41;3.45;;;0.80;;
81930;SDS011;71395;43.488;1.472;2023-07-13T19:52:15;2.22;;;0.80;;
81930;SDS011;71395;43.488;1.472;2023-07-13T19:54:48;2.95;;;0.80;;
81930;SDS011;71395;43.488;1.472;2023-07-13T19:57:16;3.95;;;0.73;;
81930;SDS011;71395;43.488;1.472;2023-07-13T19:59:45;2.10;;;0.80;;
81930;SDS011;71395;43.488;1.472;2023-07-13T20:02:16;3.88;;;0.80;;
81930;SDS011;71395;43.488;1.472;2023-07-13T20:04:43;1.80;;;0.85;;
81930;SDS011;71395;43.488;1.472;2023-07-13T20:07:15;3.40;;;0.80;;
81930;SDS011;71395;43.488;1.472;2023-07-13T20:09:42;2.15;;;0.52;;
81930;SDS011;71395;43.488;1.472;2023-07-13T20:12:16;2.50;;;0.80;;
81930;SDS011;71395;43.488;1.472;2023-07-13T20:14:45;2.22;;;0.70;;
81930;SDS011;71395;43.488;1.472;2023-07-13T20:17:19;3.15;;;0.80;;
81930;SDS011;71395;43.488;1.472;2023-07-13T20:19:48;4.55;;;0.90;;
81930;SDS011;71395;43.488;1.472;2023-07-13T20:22:16;2.05;;;0.88;;
81930;SDS011;71395;43.488;1.472;2023-07-13T20:24:42;2.78;;;0.80;;
81930;SDS011;71395;43.488;1.472;2023-07-13T20:27:08;2.22;;;0.90;;
81930;SDS011;71395;43.488;1.472;2023-07-13T20:29:33;2.22;;;0.80;;
81930;SDS011;71395;43.488;1.472;2023-07-13T20:31:59;1.88;;;0.70;;
81930;SDS011;71395;43.488;1.472;2023-07-13T20:34:25;2.28;;;0.80;;
81930;SDS011;71395;43.488;1.472;2023-07-13T20:36:54;1.95;;;0.75;;
81930;SDS011;71395;43.488;1.472;2023-07-13T20:39:20;1.98;;;0.70;;
81930;SDS011;71395;43.488;1.472;2023-07-13T20:41:47;2.72;;;0.82;;
81930;SDS011;71395;43.488;1.472;2023-07-13T20:44:13;2.63;;;0.80;;
81930;SDS011;71395;43.488;1.472;2023-07-13T20:46:39;1.80;;;0.80;;
81930;SDS011;71395;43.488;1.472;2023-07-13T20:49:05;2.50;;;0.80;;
81930;SDS011;71395;43.488;1.472;2023-07-13T20:51:31;1.88;;;0.65;;
81930;SDS011;71395;43.488;1.472;2023-07-13T20:53:57;2.63;;;0.90;;
81930;SDS011;71395;43.488;1.472;2023-07-13T20:56:24;2.42;;;0.80;;
81930;SDS011;71395;43.488;1.472;2023-07-13T20:58:52;1.70;;;0.63;;
81930;SDS011;71395;43.488;1.472;2023-07-13T21:04:05;2.13;;;0.77;;
81930;SDS011;71395;43.488;1.472;2023-07-13T21:06:34;2.53;;;0.77;;
81930;SDS011;71395;43.488;1.472;2023-07-13T21:09:01;2.42;;;0.70;;
81930;SDS011;71395;43.488;1.472;2023-07-13T21:11:27;2.08;;;0.80;;
81930;SDS011;71395;43.488;1.472;2023-07-13T21:13:53;2.00;;;0.70;;
81930;SDS011;71395;43.488;1.472;2023-07-13T21:16:24;2.60;;;0.77;;
81930;SDS011;71395;43.488;1.472;2023-07-13T21:18:51;2.17;;;0.80;;